Time;durP1;ratioP1;P1;durP2;ratioP2;P2;SDS_P1;SDS_P2;PMS_P1;PMS_P2;Temp;Humidity;BMP_temperature;BMP_pressure;BME280_temperature;BME280_humidity;BME280_pressure;Samples;Min_cycle;Max_cycle;Signal;HPM_P1;HPM_P2
2023/03/20 00:00:07;;;;;;;19.17;12.18;;;23.90;38.60;;;;;;6098090;28;83281;-60
2023/03/20 00:03:07;;;;;;;21.63;13.05;;;23.90;38.60;;;;;;6098442;28;83615;-61
2023/03/20 00:06:08;;;;;;;20.98;12.30;;;23.90;38.70;;;;;;6098490;28;83570;-60
2023/03/20 00:09:08;;;;;;;22.45;13.73;;;23.90;38.70;;;;;;6099281;28;88155;-61
2023/03/20 00:12:09;;;;;;;22.35;12.98;;;23.90;38.70;;;;;;6098255;28;83694;-61
2023/03/20 00:15:10;;;;;;;20.17;13.02;;;23.90;38.70;;;;;;6097796;28;83399;-63
2023/03/20 00:18:10;;;;;;;21.98;13.65;;;23.90;38.70;;;;;;6100671;28;84262;-64
2023/03/20 00:21:11;;;;;;;25.10;14.15;;;23.90;38.70;;;;;;6102462;28;84718;-62
2023/03/20 00:24:12;;;;;;;22.98;13.85;;;23.90;38.70;;;;;;6097583;28;83563;-63
2023/03/20 00:27:12;;;;;;;22.33;13.73;;;23.90;38.70;;;;;;6098240;28;82773;-63
2023/03/20 00:30:13;;;;;;;23.90;14.82;;;23.90;38.70;;;;;;6095564;28;85847;-63
2023/03/20 00:33:14;;;;;;;22.92;14.57;;;23.90;38.60;;;;;;6099482;28;83153;-65
2023/03/20 00:36:14;;;;;;;22.23;14.38;;;23.90;38.60;;;;;;6099107;28;86937;-64
2023/03/20 00:39:15;;;;;;;22.58;14.23;;;23.90;38.50;;;;;;6093636;28;83500;-65
2023/03/20 00:42:15;;;;;;;23.98;14.27;;;23.90;38.40;;;;;;6093247;28;83579;-65
2023/03/20 00:45:16;;;;;;;21.65;14.27;;;23.90;38.50;;;;;;6096512;28;83639;-64
2023/03/20 00:48:16;;;;;;;23.27;14.80;;;23.90;38.50;;;;;;6097198;28;85018;-60
2023/03/20 00:51:17;;;;;;;24.60;14.48;;;23.90;38.40;;;;;;6096782;28;84168;-60
2023/03/20 00:54:17;;;;;;;23.02;13.77;;;23.80;38.40;;;;;;6097520;28;86020;-60
2023/03/20 00:57:18;;;;;;;23.92;14.60;;;23.80;38.40;;;;;;6095960;28;84128;-61
2023/03/20 01:00:20;;;;;;;24.60;14.27;;;23.90;38.40;;;;;;6098121;28;84440;-61
2023/03/20 01:03:21;;;;;;;22.52;13.77;;;23.90;38.50;;;;;;6098105;28;82747;-61
2023/03/20 01:06:22;;;;;;;23.00;13.80;;;23.80;38.40;;;;;;6098225;28;83572;-63
2023/03/20 01:09:22;;;;;;;24.67;14.35;;;23.80;38.40;;;;;;6098084;28;83355;-61
2023/03/20 01:12:23;;;;;;;23.63;13.75;;;23.90;38.60;;;;;;6097531;28;84175;-62
2023/03/20 01:15:24;;;;;;;24.75;13.75;;;23.80;38.70;;;;;;6095944;28;82800;-62
2023/03/20 01:18:24;;;;;;;23.73;13.95;;;23.80;38.70;;;;;;6094199;28;86108;-61
2023/03/20 01:21:25;;;;;;;24.75;13.60;;;23.80;38.60;;;;;;6093315;28;84342;-62
2023/03/20 01:24:26;;;;;;;22.45;13.57;;;23.80;38.60;;;;;;6162469;28;83446;-61
2023/03/20 01:27:26;;;;;;;24.25;14.10;;;23.80;38.50;;;;;;6098802;28;84045;-60
2023/03/20 01:30:27;;;;;;;19.98;12.70;;;23.80;38.50;;;;;;6092903;28;84262;-60
2023/03/20 01:33:28;;;;;;;21.67;13.63;;;23.80;38.50;;;;;;6096368;28;86211;-59
2023/03/20 01:36:29;;;;;;;21.73;13.55;;;23.80;38.50;;;;;;6191337;28;84891;-59
2023/03/20 01:39:30;;;;;;;22.13;12.85;;;23.80;38.50;;;;;;6095764;28;85882;-59
2023/03/20 01:42:31;;;;;;;21.17;13.10;;;23.80;38.40;;;;;;6094484;28;86217;-63
2023/03/20 01:45:31;;;;;;;23.00;13.57;;;23.80;38.50;;;;;;6089061;28;84793;-60
2023/03/20 01:48:34;;;;;;;21.50;12.93;;;23.80;38.40;;;;;;6080810;28;85563;-60
2023/03/20 01:51:36;;;;;;;21.60;12.88;;;23.80;38.40;;;;;;6093808;28;85665;-61
2023/03/20 01:54:42;;;;;;;21.42;13.05;;;23.80;38.40;;;;;;6091918;28;90347;-60
2023/03/20 01:57:46;;;;;;;21.95;13.13;;;23.80;38.40;;;;;;6071092;28;86351;-59
2023/03/20 02:00:47;;;;;;;23.25;12.93;;;23.80;38.50;;;;;;6084767;28;87647;-62
2023/03/20 02:03:50;;;;;;;21.35;12.82;;;23.80;39.10;;;;;;6084894;28;83353;-62
2023/03/20 02:07:09;;;;;;;20.80;13.10;;;23.80;38.60;;;;;;6095648;28;84591;-63
2023/03/20 02:10:28;;;;;;;19.52;12.07;;;23.80;38.60;;;;;;6124759;28;83524;-62
2023/03/20 02:13:47;;;;;;;20.05;12.48;;;23.80;38.60;;;;;;6143780;28;85937;-62
2023/03/20 02:16:47;;;;;;;20.83;12.55;;;23.80;38.60;;;;;;6096052;28;85252;-61
2023/03/20 02:19:57;;;;;;;22.05;12.98;;;23.80;38.60;;;;;;6094951;28;84750;-62
2023/03/20 02:22:57;;;;;;;21.83;11.73;;;23.80;38.60;;;;;;6094545;28;85860;-63
2023/03/20 02:25:58;;;;;;;20.90;12.10;;;23.80;38.60;;;;;;6093583;28;90509;-61
2023/03/20 02:29:00;;;;;;;21.65;11.38;;;23.80;38.70;;;;;;6098434;28;84282;-62
2023/03/20 02:32:00;;;;;;;16.85;10.60;;;23.80;38.60;;;;;;6097004;28;83504;-63
2023/03/20 02:35:01;;;;;;;18.45;11.50;;;23.80;38.60;;;;;;6098588;28;84246;-63
2023/03/20 02:38:02;;;;;;;18.45;11.75;;;23.80;38.70;;;;;;6086075;28;85717;-60
2023/03/20 02:41:02;;;;;;;18.45;11.35;;;23.80;38.60;;;;;;6098272;28;84941;-59
2023/03/20 02:44:03;;;;;;;18.52;11.85;;;23.80;38.60;;;;;;6098681;28;84245;-60
2023/03/20 02:47:04;;;;;;;18.77;10.98;;;23.80;38.70;;;;;;6098151;28;86053;-59
2023/03/20 02:50:04;;;;;;;18.65;11.00;;;23.80;38.60;;;;;;6098485;28;85525;-59
2023/03/20 02:53:07;;;;;;;17.17;11.20;;;23.80;38.60;;;;;;6099314;28;83160;-59
2023/03/20 02:56:08;;;;;;;15.15;10.13;;;23.80;38.60;;;;;;6098053;28;83479;-63
2023/03/20 02:59:08;;;;;;;15.40;9.85;;;23.70;38.60;;;;;;6099903;28;85927;-62
2023/03/20 03:02:09;;;;;;;16.05;9.70;;;23.70;38.50;;;;;;6104148;28;83631;-63
2023/03/20 03:05:10;;;;;;;16.38;10.48;;;23.70;38.50;;;;;;6100332;28;83134;-65
2023/03/20 03:08:12;;;;;;;17.42;9.90;;;23.80;38.40;;;;;;6099219;28;83353;-63
2023/03/20 03:11:13;;;;;;;14.63;10.02;;;23.80;38.40;;;;;;6100628;28;85520;-65
2023/03/20 03:14:13;;;;;;;15.63;9.38;;;23.70;38.30;;;;;;6099236;28;83478;-60
2023/03/20 03:17:14;;;;;;;17.10;9.48;;;23.70;38.30;;;;;;6102117;28;82826;-60
2023/03/20 03:20:16;;;;;;;14.23;8.77;;;23.70;38.20;;;;;;6101437;28;83368;-58
2023/03/20 03:23:16;;;;;;;14.50;9.05;;;23.80;38.20;;;;;;6101259;28;83187;-60
2023/03/20 03:26:17;;;;;;;12.63;8.32;;;23.70;38.10;;;;;;6103538;28;80500;-59
2023/03/20 03:29:18;;;;;;;13.93;8.82;;;23.70;38.20;;;;;;6100157;28;82131;-59
2023/03/20 03:32:19;;;;;;;13.43;8.40;;;23.80;38.20;;;;;;6098934;28;83737;-67
2023/03/20 03:35:20;;;;;;;12.60;7.90;;;23.70;38.10;;;;;;6098938;28;82963;-65
2023/03/20 03:38:20;;;;;;;12.30;7.80;;;23.80;38.10;;;;;;6100503;28;81268;-64
2023/03/20 03:41:21;;;;;;;12.15;7.68;;;23.80;38.20;;;;;;6101634;28;83773;-66
2023/03/20 03:44:21;;;;;;;14.60;7.85;;;23.80;38.10;;;;;;6077822;28;83951;-65
2023/03/20 03:47:22;;;;;;;11.75;7.38;;;23.80;38.00;;;;;;6079631;28;80718;-65
2023/03/20 03:50:22;;;;;;;12.07;7.68;;;23.80;37.90;;;;;;6101439;28;80653;-61
2023/03/20 03:53:23;;;;;;;12.88;7.28;;;23.80;38.00;;;;;;6101131;28;88352;-60
2023/03/20 03:56:24;;;;;;;13.02;7.50;;;23.80;37.90;;;;;;6102207;28;82236;-60
2023/03/20 03:59:24;;;;;;;10.15;6.45;;;23.80;37.90;;;;;;6100314;28;83478;-63
2023/03/20 04:02:25;;;;;;;9.45;6.38;;;23.80;37.90;;;;;;6099845;28;82393;-61
2023/03/20 04:05:26;;;;;;;11.50;7.22;;;23.80;38.00;;;;;;6101956;28;80434;-60
2023/03/20 04:08:26;;;;;;;10.13;7.15;;;23.80;38.20;;;;;;6101363;28;80919;-60
2023/03/20 04:11:30;;;;;;;12.70;7.60;;;23.70;37.90;;;;;;6102304;28;83685;-59
2023/03/20 04:14:31;;;;;;;11.80;7.55;;;23.70;38.10;;;;;;6101899;28;80469;-60
2023/03/20 04:17:31;;;;;;;12.32;7.65;;;23.70;38.20;;;;;;6100883;28;83546;-59
2023/03/20 04:20:32;;;;;;;11.73;7.55;;;23.70;38.20;;;;;;6098288;28;82805;-59
2023/03/20 04:23:33;;;;;;;13.65;8.07;;;23.80;38.40;;;;;;6101244;28;82097;-60
2023/03/20 04:26:33;;;;;;;11.23;7.07;;;23.80;38.40;;;;;;6102553;28;81615;-59
2023/03/20 04:29:35;;;;;;;10.80;7.40;;;23.80;38.50;;;;;;6100057;28;83179;-56
2023/03/20 04:32:55;;;;;;;13.27;7.80;;;23.80;38.50;;;;;;6098670;28;80317;-58
2023/03/20 04:36:02;;;;;;;11.88;7.72;;;23.80;38.30;;;;;;6098886;28;81681;-58
2023/03/20 04:39:02;;;;;;;13.43;7.45;;;23.90;38.10;;;;;;6176160;28;82276;-58
2023/03/20 04:42:03;;;;;;;10.00;6.80;;;23.90;38.10;;;;;;6110897;28;84330;-58
2023/03/20 04:45:04;;;;;;;12.40;6.25;;;23.90;38.30;;;;;;6094948;28;83024;-59
2023/03/20 04:48:05;;;;;;;14.25;7.07;;;24.00;38.80;;;;;;6100665;28;82945;-58
2023/03/20 04:51:05;;;;;;;9.93;5.90;;;24.00;38.80;;;;;;6098709;28;83651;-57
2023/03/20 04:54:22;;;;;;;11.30;6.50;;;24.00;38.70;;;;;;6099736;28;82684;-59
2023/03/20 04:57:23;;;;;;;10.02;6.55;;;24.00;38.70;;;;;;6099029;28;83797;-58
2023/03/20 05:00:25;;;;;;;9.95;6.03;;;24.10;38.70;;;;;;6100030;28;82239;-57
2023/03/20 05:03:26;;;;;;;9.27;6.75;;;24.10;38.40;;;;;;6099613;28;82975;-54
2023/03/20 05:06:27;;;;;;;10.88;6.10;;;24.10;38.50;;;;;;6098888;28;83621;-58
2023/03/20 05:09:27;;;;;;;8.68;5.57;;;24.10;38.50;;;;;;6087136;28;82759;-58
2023/03/20 05:12:29;;;;;;;14.40;6.45;;;24.10;38.60;;;;;;6102904;28;81900;-57
2023/03/20 05:15:40;;;;;;;16.00;6.47;;;24.20;38.80;;;;;;6101146;28;88277;-59
2023/03/20 05:19:07;;;;;;;11.20;6.20;;;24.20;38.80;;;;;;6171451;28;80799;-59
2023/03/20 05:22:26;;;;;;;13.05;6.88;;;24.20;38.60;;;;;;6100485;28;81000;-59
2023/03/20 05:25:44;;;;;;;16.05;7.20;;;24.20;38.40;;;;;;6099183;28;81910;-59
2023/03/20 05:29:14;;;;;;;16.60;7.32;;;24.20;39.10;;;;;;6132158;28;80777;-60
2023/03/20 05:32:35;;;;;;;11.88;7.43;;;24.30;39.10;;;;;;6197847;27;80057;-59
2023/03/20 05:35:59;;;;;;;12.57;7.80;;;24.30;38.60;;;;;;6180386;28;80743;-59
2023/03/20 05:39:18;;;;;;;13.23;7.15;;;24.30;38.40;;;;;;6192094;28;80226;-61
2023/03/20 05:42:38;;;;;;;14.35;8.13;;;24.30;38.40;;;;;;6198155;28;81081;-59
2023/03/20 05:45:52;;;;;;;12.90;8.25;;;24.30;38.00;;;;;;6070837;28;87688;-54
2023/03/20 05:49:11;;;;;;;12.05;7.88;;;24.30;37.80;;;;;;5981121;28;82187;-59
2023/03/20 05:52:23;;;;;;;13.82;8.60;;;24.30;37.50;;;;;;5666140;28;84703;-59
2023/03/20 05:55:43;;;;;;;19.13;8.65;;;24.30;37.30;;;;;;5443612;28;83140;-58
2023/03/20 05:58:57;;;;;;;15.23;10.30;;;24.30;37.40;;;;;;5462977;28;83482;-57
2023/03/20 06:02:25;;;;;;;17.17;10.35;;;24.30;37.00;;;;;;5437342;28;87030;-58
2023/03/20 06:05:35;;;;;;;14.80;9.93;;;24.30;36.80;;;;;;5456376;28;86982;-61
2023/03/20 06:08:38;;;;;;;18.20;10.35;;;24.30;36.50;;;;;;5955427;28;85664;-61
2023/03/20 06:11:39;;;;;;;15.60;9.82;;;24.30;36.20;;;;;;6091641;28;83623;-60
2023/03/20 06:14:41;;;;;;;15.13;9.60;;;24.30;36.10;;;;;;6097082;28;81766;-60
2023/03/20 06:17:42;;;;;;;15.35;9.85;;;24.20;36.00;;;;;;6089004;28;83409;-60
2023/03/20 06:20:47;;;;;;;14.30;9.98;;;24.10;36.00;;;;;;6096085;28;84415;-60
2023/03/20 06:23:48;;;;;;;18.42;10.10;;;24.00;35.90;;;;;;6092356;28;83828;-60
2023/03/20 06:26:48;;;;;;;15.68;9.85;;;24.00;35.70;;;;;;6094491;28;85783;-59
2023/03/20 06:29:49;;;;;;;17.15;10.55;;;24.00;35.80;;;;;;6097520;28;85932;-59
2023/03/20 06:32:54;;;;;;;14.68;9.88;;;23.90;35.60;;;;;;6091210;28;85067;-62
2023/03/20 06:35:58;;;;;;;16.27;10.05;;;23.90;35.40;;;;;;6094718;28;84325;-61
2023/03/20 06:39:02;;;;;;;17.88;10.52;;;23.90;35.70;;;;;;6087408;28;83766;-62
2023/03/20 06:42:02;;;;;;;17.48;10.30;;;23.90;35.60;;;;;;6092434;28;86544;-59
2023/03/20 06:45:03;;;;;;;18.73;11.20;;;23.90;35.50;;;;;;6094582;28;84610;-60
2023/03/20 06:48:23;;;;;;;19.98;12.45;;;23.90;35.50;;;;;;6092886;28;85911;-59
2023/03/20 06:51:25;;;;;;;17.25;11.48;;;24.00;35.80;;;;;;6080869;28;88014;-59
2023/03/20 06:54:27;;;;;;;21.38;12.43;;;24.00;35.70;;;;;;6074692;28;85719;-61
2023/03/20 06:57:28;;;;;;;20.77;12.55;;;23.90;35.50;;;;;;6076357;28;85634;-60
2023/03/20 07:00:29;;;;;;;21.20;12.55;;;23.90;35.40;;;;;;6084627;28;85507;-61
2023/03/20 07:03:30;;;;;;;21.55;13.13;;;23.90;35.30;;;;;;6086809;28;83333;-60
2023/03/20 07:06:32;;;;;;;21.05;13.38;;;23.90;35.40;;;;;;6073045;28;85442;-61
2023/03/20 07:09:33;;;;;;;19.25;12.73;;;23.90;35.30;;;;;;6091732;28;84283;-61
2023/03/20 07:12:34;;;;;;;18.98;13.40;;;24.00;35.30;;;;;;6089234;28;86201;-60
2023/03/20 07:15:35;;;;;;;20.67;12.48;;;23.90;35.40;;;;;;6089704;28;85222;-54
2023/03/20 07:18:37;;;;;;;20.23;11.70;;;24.00;35.50;;;;;;6090868;28;85257;-56
2023/03/20 07:21:37;;;;;;;18.20;10.88;;;24.00;35.60;;;;;;6084794;28;85802;-55
2023/03/20 07:24:38;;;;;;;18.70;11.98;;;24.00;35.40;;;;;;6085283;28;91230;-56
2023/03/20 07:27:39;;;;;;;21.90;11.30;;;24.00;35.40;;;;;;6087268;28;87729;-56
2023/03/20 07:30:40;;;;;;;22.08;11.35;;;23.90;35.20;;;;;;6096167;28;86386;-54
2023/03/20 07:33:41;;;;;;;17.65;11.10;;;23.90;35.20;;;;;;6095896;28;85861;-60
2023/03/20 07:36:42;;;;;;;17.20;10.95;;;23.90;35.10;;;;;;6097982;28;84437;-60
2023/03/20 07:39:43;;;;;;;16.92;10.73;;;24.00;35.20;;;;;;6096611;28;85588;-60
2023/03/20 07:43:02;;;;;;;17.10;10.80;;;23.90;35.10;;;;;;6086153;28;85784;-60
2023/03/20 07:46:43;;;;;;;16.33;10.05;;;24.00;35.10;;;;;;6144941;28;83122;-60
2023/03/20 07:49:43;;;;;;;15.80;10.48;;;24.00;35.10;;;;;;6138965;28;82938;-59
2023/03/20 07:52:44;;;;;;;19.70;10.00;;;24.00;35.10;;;;;;6182957;28;85840;-60
2023/03/20 07:55:45;;;;;;;14.43;9.65;;;24.00;35.20;;;;;;6199874;28;83513;-60
2023/03/20 07:58:45;;;;;;;17.35;9.93;;;24.00;35.10;;;;;;6201974;28;85860;-60
2023/03/20 08:01:46;;;;;;;17.80;10.48;;;24.00;35.20;;;;;;6202515;28;81415;-60
2023/03/20 08:04:46;;;;;;;21.38;10.00;;;24.00;35.50;;;;;;6197871;28;83590;-60
2023/03/20 08:07:47;;;;;;;14.63;9.50;;;24.00;35.50;;;;;;6191974;28;83358;-59
2023/03/20 08:10:47;;;;;;;15.25;9.38;;;24.00;35.60;;;;;;6198707;28;82919;-61
2023/03/20 08:13:48;;;;;;;16.25;8.98;;;24.00;35.40;;;;;;6197587;28;82900;-61
2023/03/20 08:16:48;;;;;;;16.50;9.57;;;24.00;35.20;;;;;;6144852;28;87265;-61
2023/03/20 08:19:49;;;;;;;17.40;10.45;;;24.00;35.30;;;;;;6085648;28;82920;-67
2023/03/20 08:22:49;;;;;;;18.25;11.60;;;23.80;35.00;;;;;;6098811;28;83612;-62
2023/03/20 08:25:50;;;;;;;18.38;11.55;;;23.70;34.70;;;;;;6079102;28;85656;-60
2023/03/20 08:28:50;;;;;;;21.40;13.77;;;23.60;34.60;;;;;;6091470;28;84948;-59
2023/03/20 08:31:51;;;;;;;20.58;13.02;;;23.50;34.80;;;;;;6094262;28;83004;-59
2023/03/20 08:34:53;;;;;;;20.45;12.48;;;23.50;35.10;;;;;;6076080;28;86120;-59
2023/03/20 08:37:54;;;;;;;17.70;11.25;;;23.50;35.30;;;;;;6089663;28;86826;-60
2023/03/20 08:40:54;;;;;;;19.42;11.73;;;23.40;35.30;;;;;;6058593;28;91034;-60
2023/03/20 08:43:55;;;;;;;18.90;12.80;;;23.40;35.50;;;;;;6083586;28;84184;-61
2023/03/20 08:46:55;;;;;;;19.10;11.45;;;23.50;35.70;;;;;;6082017;28;84905;-60
2023/03/20 08:49:56;;;;;;;20.13;11.75;;;23.40;35.90;;;;;;6079637;28;86295;-58
2023/03/20 08:52:56;;;;;;;21.98;13.15;;;23.40;36.10;;;;;;6091334;28;83795;-59
2023/03/20 08:55:57;;;;;;;18.30;12.02;;;23.40;35.90;;;;;;6087570;28;84619;-59
2023/03/20 08:58:57;;;;;;;22.70;12.85;;;23.30;36.00;;;;;;6087325;28;83222;-59
2023/03/20 09:01:58;;;;;;;19.20;12.48;;;23.40;36.10;;;;;;6089985;28;83585;-59
2023/03/20 09:04:58;;;;;;;20.35;12.80;;;23.40;36.20;;;;;;6071814;28;84167;-59
2023/03/20 09:07:59;;;;;;;26.80;12.88;;;23.30;36.00;;;;;;6089925;28;83183;-59
2023/03/20 09:11:00;;;;;;;23.88;13.90;;;23.30;36.00;;;;;;6087086;28;83289;-59
2023/03/20 09:14:01;;;;;;;21.88;13.77;;;23.40;36.10;;;;;;6090311;28;83186;-60
2023/03/20 09:17:01;;;;;;;20.75;13.82;;;23.40;36.10;;;;;;6090117;28;83133;-60
2023/03/20 09:20:02;;;;;;;23.23;13.25;;;23.50;36.00;;;;;;6082435;28;86213;-59
2023/03/20 09:23:03;;;;;;;21.55;12.98;;;23.50;36.20;;;;;;6131028;28;83664;-60
2023/03/20 09:26:03;;;;;;;21.80;12.35;;;23.50;36.10;;;;;;6138062;28;83462;-60
2023/03/20 09:29:04;;;;;;;20.83;12.85;;;23.60;36.30;;;;;;6090099;28;87425;-60
2023/03/20 09:32:05;;;;;;;27.60;14.80;;;23.70;36.30;;;;;;6091115;28;83348;-61
2023/03/20 09:35:06;;;;;;;25.10;14.38;;;23.70;36.30;;;;;;6094356;28;84000;-60
2023/03/20 09:38:07;;;;;;;18.95;13.50;;;23.70;36.20;;;;;;6079817;28;83373;-60
2023/03/20 09:41:07;;;;;;;24.27;13.93;;;23.80;36.20;;;;;;6091398;28;87969;-59
2023/03/20 09:44:08;;;;;;;21.25;13.15;;;23.80;36.20;;;;;;6093628;28;84774;-58
2023/03/20 09:47:08;;;;;;;17.45;11.88;;;24.00;36.30;;;;;;6089354;28;83855;-60
2023/03/20 09:50:09;;;;;;;18.48;11.02;;;24.10;36.60;;;;;;6065199;28;85022;-60
2023/03/20 09:53:09;;;;;;;18.30;10.77;;;24.20;37.20;;;;;;6084221;28;82960;-59
2023/03/20 09:56:10;;;;;;;16.08;11.00;;;24.20;36.80;;;;;;6083686;28;84407;-59
2023/03/20 09:59:11;;;;;;;19.88;10.73;;;24.30;37.00;;;;;;6088706;28;86151;-60
2023/03/20 10:02:11;;;;;;;17.55;10.50;;;24.30;36.90;;;;;;6086530;28;84335;-60
2023/03/20 10:05:12;;;;;;;19.70;11.25;;;24.40;36.90;;;;;;6083891;28;85497;-59
2023/03/20 10:08:12;;;;;;;22.20;11.50;;;24.40;37.00;;;;;;6093707;28;83537;-61
2023/03/20 10:11:14;;;;;;;18.38;11.57;;;24.30;37.10;;;;;;6092115;28;84440;-60
2023/03/20 10:14:17;;;;;;;23.17;10.02;;;24.30;37.10;;;;;;6087040;28;85547;-65
2023/03/20 10:17:18;;;;;;;23.90;11.20;;;24.30;37.30;;;;;;6083866;28;84859;-62
2023/03/20 10:20:18;;;;;;;19.80;10.38;;;24.30;37.40;;;;;;6071031;28;86315;-60
2023/03/20 10:23:19;;;;;;;15.30;10.15;;;24.40;37.40;;;;;;6081847;28;86411;-60
2023/03/20 10:26:19;;;;;;;28.52;10.50;;;24.40;37.60;;;;;;6085657;28;83493;-60
2023/03/20 10:29:20;;;;;;;26.40;10.77;;;24.40;37.50;;;;;;6090365;28;83628;-59
2023/03/20 10:32:20;;;;;;;19.27;8.73;;;24.40;37.50;;;;;;6083008;28;83106;-60
2023/03/20 10:35:21;;;;;;;15.05;8.90;;;24.40;37.50;;;;;;6055207;28;83613;-63
2023/03/20 10:38:23;;;;;;;17.38;9.73;;;24.40;37.40;;;;;;6075637;28;80655;-65
2023/03/20 10:41:24;;;;;;;21.70;8.18;;;24.40;37.30;;;;;;6083319;28;80919;-62
2023/03/20 10:44:25;;;;;;;11.27;7.55;;;24.40;37.60;;;;;;6075889;28;81803;-61
2023/03/20 10:47:25;;;;;;;13.63;8.77;;;24.40;37.50;;;;;;6087207;28;81464;-62
2023/03/20 10:50:26;;;;;;;17.38;8.35;;;24.40;37.50;;;;;;6098068;28;80718;-64
2023/03/20 10:53:26;;;;;;;13.40;7.93;;;24.50;37.50;;;;;;6088120;28;80439;-61
2023/03/20 10:56:27;;;;;;;13.73;7.82;;;24.60;37.80;;;;;;6098404;28;83184;-60
2023/03/20 10:59:28;;;;;;;13.57;8.25;;;24.60;37.70;;;;;;6092842;28;82286;-60
2023/03/20 11:02:29;;;;;;;10.85;7.00;;;24.60;37.80;;;;;;6093425;28;81870;-61
2023/03/20 11:05:29;;;;;;;10.57;7.18;;;24.60;37.80;;;;;;6100481;28;81587;-59
2023/03/20 11:08:30;;;;;;;14.63;8.23;;;24.60;38.00;;;;;;6163538;28;83667;-58
2023/03/20 11:11:30;;;;;;;12.38;7.82;;;24.60;38.20;;;;;;6200094;28;80558;-59
2023/03/20 11:14:31;;;;;;;13.05;7.65;;;24.60;38.20;;;;;;6202010;28;80518;-59
2023/03/20 11:17:31;;;;;;;11.85;8.30;;;24.60;38.30;;;;;;6139628;28;80155;-60
2023/03/20 11:20:32;;;;;;;14.98;8.07;;;24.60;38.60;;;;;;6097846;28;80626;-58
2023/03/20 11:23:32;;;;;;;10.68;7.30;;;24.60;39.10;;;;;;6101596;28;82994;-58
2023/03/20 11:26:33;;;;;;;13.93;7.80;;;24.60;39.50;;;;;;6098709;28;82398;-58
2023/03/20 11:29:34;;;;;;;15.23;7.53;;;24.60;39.40;;;;;;6095718;28;88324;-59
2023/03/20 11:32:35;;;;;;;14.02;8.68;;;24.60;39.80;;;;;;6096859;28;81523;-64
2023/03/20 11:35:35;;;;;;;13.43;7.82;;;24.60;39.80;;;;;;6097989;28;81891;-67
2023/03/20 11:38:36;;;;;;;14.20;7.70;;;24.60;41.20;;;;;;6094867;28;83116;-63
2023/03/20 11:41:37;;;;;;;11.30;7.63;;;24.60;41.90;;;;;;6094082;28;85073;-62
2023/03/20 11:44:37;;;;;;;14.00;7.75;;;24.50;42.60;;;;;;6093378;28;81164;-63
2023/03/20 11:47:38;;;;;;;11.82;7.85;;;24.50;42.40;;;;;;6097922;28;81006;-66
2023/03/20 11:50:38;;;;;;;11.25;7.35;;;24.40;42.80;;;;;;6080594;28;86691;-59
2023/03/20 11:53:39;;;;;;;16.05;7.60;;;24.40;43.70;;;;;;6078742;28;80804;-61
2023/03/20 11:56:39;;;;;;;13.52;7.75;;;24.40;44.10;;;;;;6090428;28;83082;-61
2023/03/20 11:59:40;;;;;;;14.10;8.00;;;24.40;44.90;;;;;;6085215;28;81394;-62
2023/03/20 12:02:40;;;;;;;14.45;7.40;;;24.30;44.90;;;;;;6082941;28;83854;-62
2023/03/20 12:05:41;;;;;;;11.00;7.47;;;24.30;45.40;;;;;;6087997;28;80523;-62
2023/03/20 12:08:42;;;;;;;12.10;8.23;;;24.30;45.70;;;;;;6092875;28;80550;-59
2023/03/20 12:11:42;;;;;;;11.63;7.80;;;24.30;45.60;;;;;;6096851;28;81120;-59
2023/03/20 12:14:43;;;;;;;12.07;7.70;;;24.30;45.80;;;;;;6088683;28;82014;-59
2023/03/20 12:17:43;;;;;;;13.35;8.00;;;24.40;45.20;;;;;;6088619;28;80774;-60
2023/03/20 12:20:44;;;;;;;12.00;7.93;;;24.40;45.20;;;;;;6098827;28;80617;-60
2023/03/20 12:23:45;;;;;;;11.25;7.35;;;24.50;45.20;;;;;;6077140;28;83431;-60
2023/03/20 12:26:47;;;;;;;12.55;7.63;;;24.50;45.40;;;;;;6097951;28;80116;-66
2023/03/20 12:29:47;;;;;;;9.55;6.82;;;24.60;45.40;;;;;;6084070;28;81862;-67
2023/03/20 12:32:48;;;;;;;11.00;7.00;;;24.60;45.20;;;;;;6097743;28;83665;-67
2023/03/20 12:35:48;;;;;;;12.13;7.65;;;24.60;45.80;;;;;;6096652;28;81324;-66
2023/03/20 12:38:49;;;;;;;10.35;7.43;;;24.60;44.90;;;;;;6084459;27;85869;-65
2023/03/20 12:41:49;;;;;;;11.18;7.35;;;24.60;45.40;;;;;;6092928;28;83245;-66
2023/03/20 12:44:50;;;;;;;11.95;7.65;;;24.60;45.40;;;;;;6089649;28;82188;-66
2023/03/20 12:47:51;;;;;;;13.57;7.95;;;24.60;45.20;;;;;;6096228;28;85372;-64
2023/03/20 12:50:51;;;;;;;10.25;7.38;;;24.60;46.40;;;;;;6091410;28;88289;-64
2023/03/20 12:53:52;;;;;;;13.02;7.97;;;24.60;47.10;;;;;;6091917;28;80562;-65
2023/03/20 12:56:52;;;;;;;13.10;7.63;;;24.60;48.40;;;;;;6077844;28;85156;-66
2023/03/20 12:59:53;;;;;;;15.57;7.95;;;24.50;49.20;;;;;;6084471;28;81218;-63
2023/03/20 13:02:53;;;;;;;15.93;9.05;;;24.40;50.00;;;;;;6084399;28;82739;-66
2023/03/20 13:05:54;;;;;;;11.77;7.10;;;24.40;50.40;;;;;;6094562;28;80258;-68
2023/03/20 13:08:54;;;;;;;10.85;7.63;;;24.40;50.50;;;;;;6085685;28;81400;-68
2023/03/20 13:11:55;;;;;;;11.20;7.38;;;24.30;50.80;;;;;;6154846;28;84966;-65
2023/03/20 13:14:55;;;;;;;17.95;7.68;;;24.30;50.90;;;;;;6116450;28;81860;-67
2023/03/20 13:17:56;;;;;;;12.25;7.85;;;24.20;50.40;;;;;;6087134;28;80554;-68
2023/03/20 13:20:56;;;;;;;13.10;6.90;;;24.20;50.80;;;;;;6094084;28;85709;-67
2023/03/20 13:23:57;;;;;;;12.38;7.72;;;24.20;49.90;;;;;;6097224;28;81128;-68
2023/03/20 13:26:57;;;;;;;10.60;6.75;;;24.20;50.60;;;;;;6086645;28;81038;-68
2023/03/20 13:29:58;;;;;;;17.08;8.43;;;24.20;51.40;;;;;;6085293;28;81479;-67
2023/03/20 13:32:59;;;;;;;11.15;7.13;;;24.10;50.30;;;;;;6106612;28;83098;-64
2023/03/20 13:35:59;;;;;;;13.82;7.72;;;24.10;50.70;;;;;;6089778;28;80521;-68
2023/03/20 13:39:00;;;;;;;11.07;7.30;;;24.10;50.40;;;;;;6085827;28;82661;-67
2023/03/20 13:42:00;;;;;;;14.02;8.20;;;24.10;51.30;;;;;;6081587;28;85426;-65
2023/03/20 13:45:01;;;;;;;12.00;8.35;;;24.10;50.70;;;;;;6094087;28;81791;-66
2023/03/20 13:48:01;;;;;;;11.07;7.95;;;24.10;50.20;;;;;;6096754;28;81356;-66
2023/03/20 13:51:04;;;;;;;13.73;8.43;;;24.10;50.80;;;;;;6091932;28;80242;-66
2023/03/20 13:54:04;;;;;;;13.20;8.00;;;24.10;50.80;;;;;;6093476;28;81592;-64
2023/03/20 13:57:06;;;;;;;13.38;9.10;;;24.10;50.90;;;;;;6090363;28;87380;-65
2023/03/20 14:00:07;;;;;;;14.65;9.05;;;24.00;51.00;;;;;;6067536;28;83311;-70
2023/03/20 14:03:08;;;;;;;16.33;9.82;;;24.00;51.20;;;;;;6088032;28;81312;-65
2023/03/20 14:06:09;;;;;;;18.65;9.32;;;24.00;51.60;;;;;;6084598;28;84818;-67
2023/03/20 14:09:10;;;;;;;13.57;8.68;;;24.00;51.90;;;;;;6086156;28;82070;-67
2023/03/20 14:12:10;;;;;;;16.13;9.32;;;24.00;51.80;;;;;;6078010;28;83551;-65
2023/03/20 14:15:11;;;;;;;16.08;8.65;;;24.00;51.80;;;;;;6096912;28;81899;-62
2023/03/20 14:18:11;;;;;;;12.43;8.18;;;24.10;51.30;;;;;;6090052;28;80813;-61
2023/03/20 14:21:12;;;;;;;12.88;8.45;;;24.10;51.70;;;;;;6096871;28;80335;-60
2023/03/20 14:24:12;;;;;;;11.68;7.78;;;24.10;52.00;;;;;;6090381;28;83165;-60
2023/03/20 14:27:13;;;;;;;14.95;8.13;;;24.10;52.80;;;;;;6098376;28;83190;-62
2023/03/20 14:30:13;;;;;;;16.33;7.22;;;24.00;52.10;;;;;;6094135;28;86429;-62
2023/03/20 14:33:14;;;;;;;15.25;6.88;;;24.10;52.20;;;;;;6096038;28;80793;-62
2023/03/20 14:36:15;;;;;;;17.63;7.05;;;24.00;52.00;;;;;;6097466;28;84862;-60
2023/03/20 14:39:15;;;;;;;10.68;7.13;;;23.90;51.50;;;;;;6098727;28;80598;-59
2023/03/20 14:42:16;;;;;;;12.82;7.15;;;23.90;51.50;;;;;;6090775;28;82122;-62
2023/03/20 14:45:17;;;;;;;13.77;7.07;;;23.90;51.10;;;;;;6098148;28;85620;-61
2023/03/20 14:48:19;;;;;;;11.82;7.40;;;23.90;52.20;;;;;;6099870;28;81223;-61
2023/03/20 14:51:19;;;;;;;9.98;6.80;;;23.80;52.20;;;;;;6097454;28;81080;-61
2023/03/20 14:54:20;;;;;;;14.95;7.72;;;23.80;51.90;;;;;;6091584;28;84707;-60
2023/03/20 14:57:20;;;;;;;11.50;7.25;;;23.70;52.20;;;;;;6097242;28;88245;-66
2023/03/20 15:00:21;;;;;;;11.75;7.65;;;23.70;51.70;;;;;;6095177;28;80472;-62
2023/03/20 15:03:23;;;;;;;11.95;7.00;;;23.70;52.00;;;;;;6087203;28;82958;-59
2023/03/20 15:06:24;;;;;;;13.75;7.85;;;23.60;51.00;;;;;;6096124;28;81445;-60
2023/03/20 15:09:25;;;;;;;11.55;8.43;;;23.70;53.30;;;;;;6096542;28;80770;-61
2023/03/20 15:12:25;;;;;;;13.63;8.57;;;23.60;55.30;;;;;;6097450;28;80963;-60
2023/03/20 15:15:26;;;;;;;11.98;8.52;;;23.50;50.30;;;;;;6096638;28;80468;-61
2023/03/20 15:18:27;;;;;;;14.88;9.35;;;23.50;52.20;;;;;;6098192;28;80586;-60
2023/03/20 15:21:29;;;;;;;16.30;9.38;;;23.50;51.20;;;;;;6097556;28;81041;-60
2023/03/20 15:24:30;;;;;;;14.20;8.60;;;23.50;51.70;;;;;;6101288;28;80846;-61
2023/03/20 15:27:30;;;;;;;20.48;9.63;;;23.40;52.10;;;;;;6102394;28;81104;-61
2023/03/20 15:30:31;;;;;;;15.73;10.27;;;23.40;52.50;;;;;;6100775;28;81242;-61